Time;durP1;ratioP1;P1;durP2;ratioP2;P2;SDS_P1;SDS_P2;PMS_P1;PMS_P2;Temp;Humidity;BMP_temperature;BMP_pressure;BME280_temperature;BME280_humidity;BME280_pressure;Samples;Min_cycle;Max_cycle;Signal;HPM_P1;HPM_P2
2021/01/12 00:01:03;;;;;;;;;;;;;;;;;;5041950;28;20327;-62
2021/01/12 00:03:29;;;;;;;;;;;;;;;;;;5052202;28;19966;-62
2021/01/12 00:05:55;;;;;;;;;;;;;;;;;;5047615;28;20387;-61
2021/01/12 00:08:21;;;;;;;;;;;;;;;;;;5046816;28;20015;-62
2021/01/12 00:10:46;;;;;;;;;;;;;;;;;;5049165;28;19917;-62
2021/01/12 00:13:12;;;;;;;;;;;;;;;;;;5046120;28;19955;-62
2021/01/12 00:15:38;;;;;;;;;;;;;;;;;;5051181;28;20287;-61
2021/01/12 00:18:04;;;;;;;;;;;;;;;;;;5047723;28;19913;-61
2021/01/12 00:20:30;;;;;;;;;;;;;;;;;;5043294;28;20281;-62
2021/01/12 00:22:56;;;;;;;;;;;;;;;;;;5053784;28;19913;-61
2021/01/12 00:25:22;;;;;;;;;;;;;;;;;;5044760;28;19920;-62
2021/01/12 00:27:48;;;;;;;;;;;;;;;;;;5046343;28;19963;-62
2021/01/12 00:30:14;;;;;;;;;;;;;;;;;;5047403;28;20012;-62
2021/01/12 00:32:40;;;;;;;;;;;;;;;;;;5045411;28;19917;-61
2021/01/12 00:35:05;;;;;;;;;;;;;;;;;;5052223;28;19921;-61
2021/01/12 00:37:31;;;;;;;;;;;;;;;;;;5042346;28;19992;-62
2021/01/12 00:39:57;;;;;;;;;;;;;;;;;;5047780;28;19967;-61
2021/01/12 00:42:23;;;;;;;;;;;;;;;;;;5047522;28;19913;-62
2021/01/12 00:44:49;;;;;;;;;;;;;;;;;;5043178;28;19917;-62
2021/01/12 00:47:15;;;;;;;;;;;;;;;;;;5052446;28;19924;-61
2021/01/12 00:49:43;;;;;;;;;;;;;;;;;;5043593;28;20372;-63
2021/01/12 00:52:09;;;;;;;;;;;;;;;;;;5049400;28;19912;-62
2021/01/12 00:54:35;;;;;;;;;;;;;;;;;;5047739;28;20315;-61
2021/01/12 00:57:01;;;;;;;;;;;;;;;;;;5043273;28;19913;-62
2021/01/12 00:59:27;;;;;;;;;;;;;;;;;;5067044;28;19923;-61
2021/01/12 01:01:53;;;;;;;;;;;;;;;;;;5043856;28;19948;-61
2021/01/12 01:04:19;;;;;;;;;;;;;;;;;;5050201;28;19917;-62
2021/01/12 01:06:45;;;;;;;;;;;;;;;;;;5066158;28;20757;-62
2021/01/12 01:09:11;;;;;;;;;;;;;;;;;;5041326;28;19925;-62
2021/01/12 01:11:36;;;;;;;;;;;;;;;;;;5048508;28;19924;-62
2021/01/12 01:14:02;;;;;;;;;;;;;;;;;;5044180;28;20291;-62
2021/01/12 01:16:28;;;;;;;;;;;;;;;;;;5046116;28;20051;-62
2021/01/12 01:18:54;;;;;;;;;;;;;;;;;;5067148;28;19954;-62
2021/01/12 01:21:20;;;;;;;;;;;;;;;;;;5042616;28;19917;-62
2021/01/12 01:23:46;;;;;;;;;;;;;;;;;;5049718;28;19916;-61
2021/01/12 01:26:12;;;;;;;;;;;;;;;;;;5044438;28;20366;-61
2021/01/12 01:28:38;;;;;;;;;;;;;;;;;;5045240;28;19924;-62
2021/01/12 01:31:04;;;;;;;;;;;;;;;;;;5049054;28;19917;-61
2021/01/12 01:33:29;;;;;;;;;;;;;;;;;;5042284;28;20367;-62
2021/01/12 01:35:55;;;;;;;;;;;;;;;;;;5064222;28;19921;-61
2021/01/12 01:38:21;;;;;;;;;;;;;;;;;;5047474;28;19978;-61
2021/01/12 01:40:47;;;;;;;;;;;;;;;;;;5046096;28;19912;-62
2021/01/12 01:43:13;;;;;;;;;;;;;;;;;;5048563;28;19962;-62
2021/01/12 01:45:39;;;;;;;;;;;;;;;;;;5038604;28;19970;-61
2021/01/12 01:48:15;;;;;;;;;;;;;;;;;;5048180;28;19923;-62
2021/01/12 01:50:40;;;;;;;;;;;;;;;;;;5044938;28;20020;-62
2021/01/12 01:53:10;;;;;;;;;;;;;;;;;;5043128;28;19991;-62
2021/01/12 01:55:36;;;;;;;;;;;;;;;;;;5051230;28;19957;-62
2021/01/12 01:58:02;;;;;;;;;;;;;;;;;;5043152;28;19913;-61
2021/01/12 02:00:28;;;;;;;;;;;;;;;;;;5047929;28;19924;-62
2021/01/12 02:02:53;;;;;;;;;;;;;;;;;;5048505;28;19925;-61
2021/01/12 02:05:19;;;;;;;;;;;;;;;;;;5043308;28;20019;-62
2021/01/12 02:07:45;;;;;;;;;;;;;;;;;;5051237;28;19916;-62
2021/01/12 02:10:11;;;;;;;;;;;;;;;;;;5038455;28;20011;-62
2021/01/12 02:12:37;;;;;;;;;;;;;;;;;;5048343;28;20542;-62
2021/01/12 02:15:03;;;;;;;;;;;;;;;;;;5046441;28;19913;-62
2021/01/12 02:17:29;;;;;;;;;;;;;;;;;;5043756;28;20184;-62
2021/01/12 02:19:55;;;;;;;;;;;;;;;;;;5062434;28;19922;-61
2021/01/12 02:22:21;;;;;;;;;;;;;;;;;;5040749;28;20296;-62
2021/01/12 02:24:47;;;;;;;;;;;;;;;;;;5048284;28;19912;-62
2021/01/12 02:27:12;;;;;;;;;;;;;;;;;;5045666;28;19916;-62
2021/01/12 02:29:38;;;;;;;;;;;;;;;;;;5043246;28;19916;-61
2021/01/12 02:32:04;;;;;;;;;;;;;;;;;;5050701;28;20055;-62
2021/01/12 02:34:30;;;;;;;;;;;;;;;;;;5043133;28;19916;-62
2021/01/12 02:36:56;;;;;;;;;;;;;;;;;;5045270;28;19913;-62
2021/01/12 02:39:22;;;;;;;;;;;;;;;;;;5048408;28;19917;-62
2021/01/12 02:41:48;;;;;;;;;;;;;;;;;;5042779;28;20365;-61
2021/01/12 02:44:14;;;;;;;;;;;;;;;;;;5050672;28;19927;-61
2021/01/12 02:46:39;;;;;;;;;;;;;;;;;;5043553;28;19916;-61
2021/01/12 02:49:05;;;;;;;;;;;;;;;;;;5044535;28;20012;-62
2021/01/12 02:51:31;;;;;;;;;;;;;;;;;;5064009;28;19999;-61
2021/01/12 02:53:57;;;;;;;;;;;;;;;;;;5042256;28;19913;-61
2021/01/12 02:56:23;;;;;;;;;;;;;;;;;;5048140;28;19996;-62
2021/01/12 02:58:49;;;;;;;;;;;;;;;;;;5042127;28;19950;-62
2021/01/12 03:01:15;;;;;;;;;;;;;;;;;;5045504;28;20007;-62
2021/01/12 03:03:41;;;;;;;;;;;;;;;;;;5045265;28;20299;-61
2021/01/12 03:06:07;;;;;;;;;;;;;;;;;;5046579;28;19920;-62
2021/01/12 03:08:32;;;;;;;;;;;;;;;;;;5060772;28;19916;-61
2021/01/12 03:10:58;;;;;;;;;;;;;;;;;;5040110;28;19913;-62
2021/01/12 03:13:24;;;;;;;;;;;;;;;;;;5045497;28;19924;-62
2021/01/12 03:15:50;;;;;;;;;;;;;;;;;;5051397;28;20006;-62
2021/01/12 03:18:16;;;;;;;;;;;;;;;;;;5044265;28;19955;-61
2021/01/12 03:20:42;;;;;;;;;;;;;;;;;;5054786;28;19916;-61
2021/01/12 03:23:08;;;;;;;;;;;;;;;;;;5049960;28;19912;-62
2021/01/12 03:25:34;;;;;;;;;;;;;;;;;;5052198;28;19912;-61
2021/01/12 03:28:00;;;;;;;;;;;;;;;;;;5055358;28;19916;-61
2021/01/12 03:30:26;;;;;;;;;;;;;;;;;;5046766;28;19917;-61
2021/01/12 03:32:55;;;;;;;;;;;;;;;;;;5054710;28;19912;-61
2021/01/12 03:35:21;;;;;;;;;;;;;;;;;;5052030;28;20338;-62
2021/01/12 03:37:46;;;;;;;;;;;;;;;;;;5050175;28;19914;-62
2021/01/12 03:40:12;;;;;;;;;;;;;;;;;;5056958;28;19997;-62
2021/01/12 03:42:38;;;;;;;;;;;;;;;;;;5043949;28;19952;-61
2021/01/12 03:45:04;;;;;;;;;;;;;;;;;;5054413;28;19920;-61
2021/01/12 03:47:30;;;;;;;;;;;;;;;;;;5049870;28;19921;-61
2021/01/12 03:49:56;;;;;;;;;;;;;;;;;;5049965;28;20793;-62
2021/01/12 03:52:22;;;;;;;;;;;;;;;;;;5070019;28;19942;-61
2021/01/12 03:54:48;;;;;;;;;;;;;;;;;;5045264;28;19919;-62
2021/01/12 03:57:14;;;;;;;;;;;;;;;;;;5055177;28;19917;-61
2021/01/12 03:59:42;;;;;;;;;;;;;;;;;;5065150;28;19947;-62
2021/01/12 04:02:08;;;;;;;;;;;;;;;;;;5047414;28;19913;-62
2021/01/12 04:04:34;;;;;;;;;;;;;;;;;;5061820;28;19916;-62
2021/01/12 04:07:00;;;;;;;;;;;;;;;;;;5044594;28;19916;-61
2021/01/12 04:09:26;;;;;;;;;;;;;;;;;;5051731;28;20453;-61
2021/01/12 04:11:52;;;;;;;;;;;;;;;;;;5046037;28;19913;-61
2021/01/12 04:14:18;;;;;;;;;;;;;;;;;;5044716;28;19986;-61
2021/01/12 04:16:43;;;;;;;;;;;;;;;;;;5053856;28;19923;-61
2021/01/12 04:19:09;;;;;;;;;;;;;;;;;;5040403;28;19939;-62
2021/01/12 04:21:35;;;;;;;;;;;;;;;;;;5051106;28;19971;-62
2021/01/12 04:24:01;;;;;;;;;;;;;;;;;;5050968;28;19912;-62
2021/01/12 04:26:27;;;;;;;;;;;;;;;;;;5043832;28;19966;-62
2021/01/12 04:28:53;;;;;;;;;;;;;;;;;;5049616;28;19925;-61
2021/01/12 04:31:19;;;;;;;;;;;;;;;;;;5043507;28;19948;-62
2021/01/12 04:33:45;;;;;;;;;;;;;;;;;;5051415;28;19975;-62
2021/01/12 04:36:11;;;;;;;;;;;;;;;;;;5050124;28;19924;-62
2021/01/12 04:38:38;;;;;;;;;;;;;;;;;;5025577;28;20505;-62
2021/01/12 04:41:04;;;;;;;;;;;;;;;;;;5050345;28;19957;-61
2021/01/12 04:43:30;;;;;;;;;;;;;;;;;;5044209;28;19916;-61
2021/01/12 04:45:55;;;;;;;;;;;;;;;;;;5049317;28;19921;-62
2021/01/12 04:48:21;;;;;;;;;;;;;;;;;;5048074;28;19931;-61
2021/01/12 04:50:47;;;;;;;;;;;;;;;;;;5043159;28;19970;-61
2021/01/12 04:53:13;;;;;;;;;;;;;;;;;;5052908;28;20319;-61
2021/01/12 04:55:39;;;;;;;;;;;;;;;;;;5041825;28;19946;-61
2021/01/12 04:58:05;;;;;;;;;;;;;;;;;;5047318;28;20518;-61
2021/01/12 05:00:33;;;;;;;;;;;;;;;;;;5046237;28;19924;-61
2021/01/12 05:02:59;;;;;;;;;;;;;;;;;;5044759;28;19921;-61
2021/01/12 05:05:25;;;;;;;;;;;;;;;;;;5048534;28;19917;-63
2021/01/12 05:07:51;;;;;;;;;;;;;;;;;;5042936;28;20465;-61
2021/01/12 05:10:17;;;;;;;;;;;;;;;;;;5042536;28;19921;-62
2021/01/12 05:12:43;;;;;;;;;;;;;;;;;;5050072;28;19913;-62
2021/01/12 05:15:09;;;;;;;;;;;;;;;;;;5043621;28;19913;-61
2021/01/12 05:17:34;;;;;;;;;;;;;;;;;;5052014;28;19916;-61
2021/01/12 05:20:01;;;;;;;;;;;;;;;;;;5043306;28;20014;-61
2021/01/12 05:22:27;;;;;;;;;;;;;;;;;;5048903;28;20392;-61
2021/01/12 05:25:19;;;;;;;;;;;;;;;;;;5049577;28;20383;-61
2021/01/12 05:27:38;;;;;;;;;;;;;;;;;;5037485;28;19921;-61
2021/01/12 05:30:04;;;;;;;;;;;;;;;;;;5048028;28;20293;-62
2021/01/12 05:32:30;;;;;;;;;;;;;;;;;;5046199;28;19920;-61
2021/01/12 05:34:56;;;;;;;;;;;;;;;;;;5046381;28;19913;-62
2021/01/12 05:37:22;;;;;;;;;;;;;;;;;;5064834;28;20000;-61
2021/01/12 05:39:48;;;;;;;;;;;;;;;;;;5042336;28;19917;-61
2021/01/12 05:42:14;;;;;;;;;;;;;;;;;;5048643;28;20315;-62
2021/01/12 05:44:40;;;;;;;;;;;;;;;;;;5044098;28;19912;-61
2021/01/12 05:47:07;;;;;;;;;;;;;;;;;;5043032;28;19917;-61
2021/01/12 05:49:33;;;;;;;;;;;;;;;;;;5052229;28;19928;-61
2021/01/12 05:51:58;;;;;;;;;;;;;;;;;;5039038;28;19916;-62
2021/01/12 05:54:29;;;;;;;;;;;;;;;;;;5035058;28;19916;-62
2021/01/12 05:56:55;;;;;;;;;;;;;;;;;;5041726;28;19912;-61
2021/01/12 05:59:21;;;;;;;;;;;;;;;;;;5056772;28;20257;-62
2021/01/12 06:01:47;;;;;;;;;;;;;;;;;;5048048;28;20037;-62
2021/01/12 06:04:13;;;;;;;;;;;;;;;;;;5069738;28;20361;-62
2021/01/12 06:06:39;;;;;;;;;;;;;;;;;;5049712;28;20007;-62
2021/01/12 06:09:05;;;;;;;;;;;;;;;;;;5043279;28;20329;-61
2021/01/12 06:11:31;;;;;;;;;;;;;;;;;;5041501;28;19965;-61
2021/01/12 06:13:57;;;;;;;;;;;;;;;;;;5050515;28;19977;-62
2021/01/12 06:16:23;;;;;;;;;;;;;;;;;;5043980;28;19921;-62
2021/01/12 06:18:49;;;;;;;;;;;;;;;;;;5052275;28;19921;-62
2021/01/12 06:21:15;;;;;;;;;;;;;;;;;;5039388;28;20552;-61
2021/01/12 06:23:44;;;;;;;;;;;;;;;;;;5042289;28;19919;-61
2021/01/12 06:26:10;;;;;;;;;;;;;;;;;;5049218;28;19917;-61
2021/01/12 06:28:36;;;;;;;;;;;;;;;;;;5039007;28;19920;-62
2021/01/12 06:31:02;;;;;;;;;;;;;;;;;;5043875;28;19959;-61
2021/01/12 06:33:28;;;;;;;;;;;;;;;;;;5043369;28;19912;-61
2021/01/12 06:35:57;;;;;;;;;;;;;;;;;;5040382;28;19927;-61
2021/01/12 06:38:23;;;;;;;;;;;;;;;;;;5043604;28;19913;-61
2021/01/12 06:40:49;;;;;;;;;;;;;;;;;;5041301;28;20387;-61
2021/01/12 06:43:15;;;;;;;;;;;;;;;;;;5041470;28;19970;-61
2021/01/12 06:45:41;;;;;;;;;;;;;;;;;;5061117;28;19924;-61
2021/01/12 06:48:07;;;;;;;;;;;;;;;;;;5038504;28;20491;-61
2021/01/12 06:50:32;;;;;;;;;;;;;;;;;;5048839;28;19953;-60
2021/01/12 06:52:58;;;;;;;;;;;;;;;;;;5041332;28;19913;-61
2021/01/12 06:55:26;;;;;;;;;;;;;;;;;;5037868;28;19967;-61
2021/01/12 06:57:54;;;;;;;;;;;;;;;;;;5047965;28;20537;-61
2021/01/12 07:00:20;;;;;;;;;;;;;;;;;;5038184;28;19923;-61
2021/01/12 07:02:46;;;;;;;;;;;;;;;;;;5048610;28;19913;-61
2021/01/12 07:05:12;;;;;;;;;;;;;;;;;;5044626;28;20356;-60
2021/01/12 07:07:38;;;;;;;;;;;;;;;;;;5041071;28;19924;-60
2021/01/12 07:10:04;;;;;;;;;;;;;;;;;;5042741;28;20414;-61
2021/01/12 07:12:33;;;;;;;;;;;;;;;;;;5037208;28;20020;-61
2021/01/12 07:14:59;;;;;;;;;;;;;;;;;;5042844;28;20696;-61
2021/01/12 07:17:25;;;;;;;;;;;;;;;;;;5045847;28;20000;-61
2021/01/12 07:19:50;;;;;;;;;;;;;;;;;;5040338;28;19921;-60
2021/01/12 07:22:16;;;;;;;;;;;;;;;;;;5049418;28;20103;-61
2021/01/12 07:24:42;;;;;;;;;;;;;;;;;;5035013;28;20292;-61
2021/01/12 07:27:11;;;;;;;;;;;;;;;;;;5042821;28;19913;-61
2021/01/12 07:29:37;;;;;;;;;;;;;;;;;;5057981;28;19916;-61
2021/01/12 07:32:02;;;;;;;;;;;;;;;;;;5038382;28;19913;-61
2021/01/12 07:34:28;;;;;;;;;;;;;;;;;;5049048;28;19912;-60
2021/01/12 07:36:54;;;;;;;;;;;;;;;;;;5034718;28;19917;-62
2021/01/12 07:39:20;;;;;;;;;;;;;;;;;;5039299;28;20300;-61
2021/01/12 07:41:46;;;;;;;;;;;;;;;;;;5041871;28;19924;-61
2021/01/12 07:44:12;;;;;;;;;;;;;;;;;;5039259;28;19928;-60
2021/01/12 07:46:38;;;;;;;;;;;;;;;;;;5048475;28;20370;-60
2021/01/12 07:49:04;;;;;;;;;;;;;;;;;;5035705;28;19921;-61
2021/01/12 07:51:30;;;;;;;;;;;;;;;;;;5042246;28;19940;-61
2021/01/12 07:53:55;;;;;;;;;;;;;;;;;;5040120;28;19956;-62
2021/01/12 07:56:25;;;;;;;;;;;;;;;;;;5038117;28;19944;-61
2021/01/12 07:59:06;;;;;;;;;;;;;;;;;;5048221;28;20428;-62
2021/01/12 08:01:31;;;;;;;;;;;;;;;;;;5037942;28;20008;-61
2021/01/12 08:03:57;;;;;;;;;;;;;;;;;;5043888;28;19921;-62
2021/01/12 08:06:23;;;;;;;;;;;;;;;;;;5048412;28;19916;-64
2021/01/12 08:08:49;;;;;;;;;;;;;;;;;;5045433;28;20323;-64
2021/01/12 08:11:16;;;;;;;;;;;;;;;;;;5048773;28;19917;-64
2021/01/12 08:13:42;;;;;;;;;;;;;;;;;;5048439;28;20008;-63
2021/01/12 08:16:09;;;;;;;;;;;;;;;;;;5043951;28;20036;-63
2021/01/12 08:18:37;;;;;;;;;;;;;;;;;;5049239;28;19920;-63
2021/01/12 08:21:03;;;;;;;;;;;;;;;;;;5038690;28;19921;-64
2021/01/12 08:23:29;;;;;;;;;;;;;;;;;;5048127;28;19917;-64
2021/01/12 08:25:58;;;;;;;;;;;;;;;;;;5047451;28;19924;-62
2021/01/12 08:28:29;;;;;;;;;;;;;;;;;;5046271;28;20540;-61
2021/01/12 08:30:55;;;;;;;;;;;;;;;;;;5046076;28;20015;-63
2021/01/12 08:33:23;;;;;;;;;;;;;;;;;;5043739;28;19912;-63
2021/01/12 08:35:49;;;;;;;;;;;;;;;;;;5046171;28;19932;-64
2021/01/12 08:38:15;;;;;;;;;;;;;;;;;;5044581;28;19920;-63
2021/01/12 08:40:41;;;;;;;;;;;;;;;;;;5039560;28;20880;-66
2021/01/12 08:43:07;;;;;;;;;;;;;;;;;;5042352;28;19913;-62
2021/01/12 08:45:33;;;;;;;;;;;;;;;;;;5042650;28;20047;-65
2021/01/12 08:47:59;;;;;;;;;;;;;;;;;;5048597;28;19917;-63
2021/01/12 08:50:24;;;;;;;;;;;;;;;;;;5042533;28;20367;-62
2021/01/12 08:52:50;;;;;;;;;;;;;;;;;;5044037;28;19929;-64
2021/01/12 08:55:16;;;;;;;;;;;;;;;;;;5050269;28;20553;-67
2021/01/12 08:57:42;;;;;;;;;;;;;;;;;;5043151;28;20364;-63
2021/01/12 09:00:08;;;;;;;;;;;;;;;;;;5046081;28;19924;-63
2021/01/12 09:02:34;;;;;;;;;;;;;;;;;;5034030;28;19913;-64
2021/01/12 09:05:00;;;;;;;;;;;;;;;;;;5041252;28;20355;-64
2021/01/12 09:07:26;;;;;;;;;;;;;;;;;;5047230;28;19952;-63
2021/01/12 09:09:52;;;;;;;;;;;;;;;;;;5041520;28;20123;-64
2021/01/12 09:12:19;;;;;;;;;;;;;;;;;;5046511;28;19924;-62
2021/01/12 09:14:48;;;;;;;;;;;;;;;;;;5050166;28;19977;-61
2021/01/12 09:17:14;;;;;;;;;;;;;;;;;;5038256;28;20442;-62
2021/01/12 09:19:40;;;;;;;;;;;;;;;;;;5046132;28;19958;-62
2021/01/12 09:22:06;;;;;;;;;;;;;;;;;;5042305;28;19923;-62
2021/01/12 09:24:32;;;;;;;;;;;;;;;;;;5039689;28;19920;-61
2021/01/12 09:26:58;;;;;;;;;;;;;;;;;;5047365;28;19913;-62
2021/01/12 09:29:31;;;;;;;;;;;;;;;;;;5037171;28;19920;-61
2021/01/12 09:31:57;;;;;;;;;;;;;;;;;;5049691;28;19920;-61
2021/01/12 09:34:32;;;;;;;;;;;;;;;;;;5047857;28;19920;-61
2021/01/12 09:36:58;;;;;;;;;;;;;;;;;;5047240;28;19917;-62
2021/01/12 09:39:24;;;;;;;;;;;;;;;;;;5048296;28;20026;-62
2021/01/12 09:41:49;;;;;;;;;;;;;;;;;;5032610;28;19943;-61
2021/01/12 09:44:15;;;;;;;;;;;;;;;;;;5045851;28;19921;-62
2021/01/12 09:46:41;;;;;;;;;;;;;;;;;;5041741;28;19920;-62
2021/01/12 09:49:08;;;;;;;;;;;;;;;;;;5044097;28;19960;-61
2021/01/12 09:51:34;;;;;;;;;;;;;;;;;;5050527;28;20612;-62
2021/01/12 09:54:00;;;;;;;;;;;;;;;;;;5053073;28;19913;-62
2021/01/12 09:56:26;;;;;;;;;;;;;;;;;;5049447;28;19917;-62
2021/01/12 09:58:52;;;;;;;;;;;;;;;;;;5040767;28;19924;-61
2021/01/12 10:01:18;;;;;;;;;;;;;;;;;;5039244;28;19921;-62
2021/01/12 10:03:46;;;;;;;;;;;;;;;;;;5052203;28;20669;-61
2021/01/12 10:06:13;;;;;;;;;;;;;;;;;;5040967;28;19921;-62
2021/01/12 10:08:38;;;;;;;;;;;;;;;;;;5047793;28;19925;-62
2021/01/12 10:11:04;;;;;;;;;;;;;;;;;;5041753;28;20511;-61
2021/01/12 10:13:30;;;;;;;;;;;;;;;;;;5042723;28;19913;-62
2021/01/12 10:15:56;;;;;;;;;;;;;;;;;;5048202;28;20380;-62
2021/01/12 10:18:22;;;;;;;;;;;;;;;;;;5038450;28;19952;-61
2021/01/12 10:20:48;;;;;;;;;;;;;;;;;;5044443;28;19923;-63
2021/01/12 10:23:14;;;;;;;;;;;;;;;;;;5043767;28;19913;-63
2021/01/12 10:25:40;;;;;;;;;;;;;;;;;;5037885;28;19982;-62
2021/01/12 10:28:06;;;;;;;;;;;;;;;;;;5047823;28;19917;-64
2021/01/12 10:30:32;;;;;;;;;;;;;;;;;;5037502;28;19948;-63
2021/01/12 10:32:58;;;;;;;;;;;;;;;;;;5040881;28;20361;-65
2021/01/12 10:35:23;;;;;;;;;;;;;;;;;;5043168;28;20000;-66
2021/01/12 10:37:49;;;;;;;;;;;;;;;;;;5037034;28;19921;-64
2021/01/12 10:40:15;;;;;;;;;;;;;;;;;;5042869;28;19921;-64
2021/01/12 10:42:41;;;;;;;;;;;;;;;;;;5036332;28;20549;-65
2021/01/12 10:45:14;;;;;;;;;;;;;;;;;;5045485;28;19917;-64
2021/01/12 10:47:43;;;;;;;;;;;;;;;;;;5045812;28;20261;-64
2021/01/12 10:50:09;;;;;;;;;;;;;;;;;;5034602;28;20012;-65
2021/01/12 10:52:35;;;;;;;;;;;;;;;;;;5058932;28;19918;-64
2021/01/12 10:55:01;;;;;;;;;;;;;;;;;;5040206;28;20265;-65
2021/01/12 10:57:27;;;;;;;;;;;;;;;;;;5041722;28;19916;-65
2021/01/12 10:59:53;;;;;;;;;;;;;;;;;;5043015;28;20317;-65
2021/01/12 11:02:19;;;;;;;;;;;;;;;;;;5037103;28;20354;-66
2021/01/12 11:04:45;;;;;;;;;;;;;;;;;;5048276;28;19920;-65
2021/01/12 11:07:11;;;;;;;;;;;;;;;;;;5055029;28;19980;-66
2021/01/12 11:09:37;;;;;;;;;;;;;;;;;;5043140;28;19929;-66
2021/01/12 11:12:08;;;;;;;;;;;;;;;;;;5047252;28;19917;-65
2021/01/12 11:14:35;;;;;;;;;;;;;;;;;;5037158;28;19917;-65
2021/01/12 11:17:04;;;;;;;;;;;;;;;;;;5046239;28;20488;-65
2021/01/12 11:19:30;;;;;;;;;;;;;;;;;;5040366;28;19916;-63
2021/01/12 11:21:57;;;;;;;;;;;;;;;;;;5041347;28;19913;-65
2021/01/12 11:24:24;;;;;;;;;;;;;;;;;;5066668;28;19921;-65
2021/01/12 11:26:50;;;;;;;;;;;;;;;;;;5039799;28;19916;-64
2021/01/12 11:29:16;;;;;;;;;;;;;;;;;;5046208;28;19924;-65
2021/01/12 11:31:42;;;;;;;;;;;;;;;;;;5044374;28;20264;-67
2021/01/12 11:34:08;;;;;;;;;;;;;;;;;;5037379;28;19921;-67
2021/01/12 11:36:34;;;;;;;;;;;;;;;;;;5050150;28;19923;-65
2021/01/12 11:39:00;;;;;;;;;;;;;;;;;;5038334;28;20434;-65
2021/01/12 11:41:26;;;;;;;;;;;;;;;;;;5046984;28;19920;-66
2021/01/12 11:43:52;;;;;;;;;;;;;;;;;;5045601;28;19920;-67
2021/01/12 11:46:18;;;;;;;;;;;;;;;;;;5040631;28;20612;-64
2021/01/12 11:48:44;;;;;;;;;;;;;;;;;;5047321;28;20840;-65
2021/01/12 11:51:10;;;;;;;;;;;;;;;;;;5045587;28;20291;-65
2021/01/12 11:53:36;;;;;;;;;;;;;;;;;;5047193;28;19916;-64
2021/01/12 11:56:02;;;;;;;;;;;;;;;;;;5043629;28;20038;-64
2021/01/12 11:58:28;;;;;;;;;;;;;;;;;;5044233;28;19917;-64
2021/01/12 12:00:53;;;;;;;;;;;;;;;;;;5049942;28;19912;-62
2021/01/12 12:03:19;;;;;;;;;;;;;;;;;;5042446;28;20051;-63
2021/01/12 12:05:45;;;;;;;;;;;;;;;;;;5046463;28;19916;-65
2021/01/12 12:08:11;;;;;;;;;;;;;;;;;;5048918;28;19921;-66
2021/01/12 12:10:38;;;;;;;;;;;;;;;;;;5038524;28;19913;-67
2021/01/12 12:13:03;;;;;;;;;;;;;;;;;;5054737;28;19917;-67
2021/01/12 12:15:29;;;;;;;;;;;;;;;;;;5040528;28;19923;-63
2021/01/12 12:17:55;;;;;;;;;;;;;;;;;;5050606;28;20028;-64
2021/01/12 12:20:21;;;;;;;;;;;;;;;;;;5042835;28;20347;-65
2021/01/12 12:22:47;;;;;;;;;;;;;;;;;;5044756;28;20451;-63
2021/01/12 12:25:13;;;;;;;;;;;;;;;;;;5054865;28;19988;-64
2021/01/12 12:27:39;;;;;;;;;;;;;;;;;;5041138;28;20496;-63
2021/01/12 12:30:05;;;;;;;;;;;;;;;;;;5046711;28;19921;-64
2021/01/12 12:32:31;;;;;;;;;;;;;;;;;;5058704;28;19967;-62
2021/01/12 12:34:57;;;;;;;;;;;;;;;;;;5043912;28;19920;-62
2021/01/12 12:37:23;;;;;;;;;;;;;;;;;;5047185;28;19999;-62
2021/01/12 12:39:49;;;;;;;;;;;;;;;;;;5045834;28;19912;-63
2021/01/12 12:42:15;;;;;;;;;;;;;;;;;;5048600;28;19934;-64
2021/01/12 12:44:41;;;;;;;;;;;;;;;;;;5048524;28;20227;-63
2021/01/12 12:47:07;;;;;;;;;;;;;;;;;;5041776;28;20465;-62
2021/01/12 12:49:33;;;;;;;;;;;;;;;;;;5046503;28;20358;-63
2021/01/12 12:51:59;;;;;;;;;;;;;;;;;;5043070;28;19919;-61
2021/01/12 12:54:26;;;;;;;;;;;;;;;;;;5049836;28;19975;-62
2021/01/12 12:56:53;;;;;;;;;;;;;;;;;;5049389;28;19916;-61
2021/01/12 12:59:19;;;;;;;;;;;;;;;;;;5040186;28;20087;-61
2021/01/12 13:01:45;;;;;;;;;;;;;;;;;;5048297;28;19924;-63
2021/01/12 13:04:11;;;;;;;;;;;;;;;;;;5039217;28;19917;-63
2021/01/12 13:06:37;;;;;;;;;;;;;;;;;;5041323;28;19982;-63
2021/01/12 13:09:02;;;;;;;;;;;;;;;;;;5049163;28;20315;-63
2021/01/12 13:11:31;;;;;;;;;;;;;;;;;;5041473;28;20487;-65
2021/01/12 13:13:57;;;;;;;;;;;;;;;;;;5045591;28;20428;-64
2021/01/12 13:16:23;;;;;;;;;;;;;;;;;;5044587;28;19928;-63
2021/01/12 13:18:49;;;;;;;;;;;;;;;;;;5045072;28;19916;-62
2021/01/12 13:21:15;;;;;;;;;;;;;;;;;;5049164;28;19959;-64
2021/01/12 13:23:41;;;;;;;;;;;;;;;;;;5057769;28;19962;-63
2021/01/12 13:26:07;;;;;;;;;;;;;;;;;;5045007;28;19914;-64
2021/01/12 13:28:33;;;;;;;;;;;;;;;;;;5043285;28;20254;-62
2021/01/12 13:30:59;;;;;;;;;;;;;;;;;;5041268;28;19913;-62
2021/01/12 13:33:24;;;;;;;;;;;;;;;;;;5043648;28;19923;-64
2021/01/12 13:35:50;;;;;;;;;;;;;;;;;;5037161;28;19943;-67
2021/01/12 13:38:16;;;;;;;;;;;;;;;;;;5046527;28;19964;-65
2021/01/12 13:40:42;;;;;;;;;;;;;;;;;;5045850;28;19921;-65
2021/01/12 13:43:08;;;;;;;;;;;;;;;;;;5039653;28;19947;-64
2021/01/12 13:45:34;;;;;;;;;;;;;;;;;;5049505;28;20303;-67
2021/01/12 13:48:00;;;;;;;;;;;;;;;;;;5041412;28;19939;-66
2021/01/12 13:50:26;;;;;;;;;;;;;;;;;;5044547;28;19972;-64
2021/01/12 13:52:52;;;;;;;;;;;;;;;;;;5062518;28;20360;-66
2021/01/12 13:55:18;;;;;;;;;;;;;;;;;;5042976;28;19924;-63
2021/01/12 13:57:44;;;;;;;;;;;;;;;;;;5048876;28;20007;-66
2021/01/12 14:00:10;;;;;;;;;;;;;;;;;;5041224;28;19924;-65
2021/01/12 14:02:36;;;;;;;;;;;;;;;;;;5044859;28;19939;-64
2021/01/12 14:05:04;;;;;;;;;;;;;;;;;;5043840;28;20207;-64
2021/01/12 14:07:30;;;;;;;;;;;;;;;;;;5040974;28;19921;-64
2021/01/12 14:09:56;;;;;;;;;;;;;;;;;;5051356;28;19920;-64
2021/01/12 14:12:22;;;;;;;;;;;;;;;;;;5040739;28;19921;-68
2021/01/12 14:14:48;;;;;;;;;;;;;;;;;;5047040;28;19951;-69
2021/01/12 14:17:14;;;;;;;;;;;;;;;;;;5044050;28;19917;-66
2021/01/12 14:19:40;;;;;;;;;;;;;;;;;;5041590;28;19917;-63
2021/01/12 14:22:05;;;;;;;;;;;;;;;;;;5048255;28;19943;-64
2021/01/12 14:24:39;;;;;;;;;;;;;;;;;;5039457;28;20454;-66
2021/01/12 14:27:05;;;;;;;;;;;;;;;;;;5048608;28;19920;-66
2021/01/12 14:29:30;;;;;;;;;;;;;;;;;;5063303;28;19916;-66
2021/01/12 14:31:56;;;;;;;;;;;;;;;;;;5040881;28;19951;-67
2021/01/12 14:34:30;;;;;;;;;;;;;;;;;;5051454;28;19920;-67
2021/01/12 14:36:56;;;;;;;;;;;;;;;;;;5058300;28;19913;-67
2021/01/12 14:39:22;;;;;;;;;;;;;;;;;;5044539;28;20008;-67
2021/01/12 14:41:48;;;;;;;;;;;;;;;;;;5046282;28;19959;-62
2021/01/12 14:44:14;;;;;;;;;;;;;;;;;;5041102;28;19963;-69
2021/01/12 14:46:48;;;;;;;;;;;;;;;;;;5051549;28;20369;-64
2021/01/12 14:49:14;;;;;;;;;;;;;;;;;;5074603;28;20438;-62
2021/01/12 14:51:40;;;;;;;;;;;;;;;;;;5041927;28;19940;-64
2021/01/12 14:54:09;;;;;;;;;;;;;;;;;;5050394;28;19974;-66
2021/01/12 14:56:35;;;;;;;;;;;;;;;;;;5039933;28;20599;-64
2021/01/12 14:59:02;;;;;;;;;;;;;;;;;;5047461;28;19975;-64
2021/01/12 15:01:36;;;;;;;;;;;;;;;;;;5047502;28;20000;-66
2021/01/12 15:04:05;;;;;;;;;;;;;;;;;;5036909;28;19933;-68
2021/01/12 15:06:35;;;;;;;;;;;;;;;;;;5049550;28;19923;-65
2021/01/12 15:09:01;;;;;;;;;;;;;;;;;;5044194;28;19921;-67
2021/01/12 15:11:26;;;;;;;;;;;;;;;;;;5044940;28;19927;-64
2021/01/12 15:13:52;;;;;;;;;;;;;;;;;;5048246;28;19967;-63
2021/01/12 15:16:18;;;;;;;;;;;;;;;;;;5040715;28;19916;-64
2021/01/12 15:18:44;;;;;;;;;;;;;;;;;;5045299;28;20576;-64
2021/01/12 15:21:10;;;;;;;;;;;;;;;;;;5039683;28;20317;-65
2021/01/12 15:23:36;;;;;;;;;;;;;;;;;;5044952;28;19917;-66
2021/01/12 15:26:02;;;;;;;;;;;;;;;;;;5048963;28;19947;-61
2021/01/12 15:28:28;;;;;;;;;;;;;;;;;;5040927;28;19913;-65
2021/01/12 15:30:54;;;;;;;;;;;;;;;;;;5042554;28;19921;-68
2021/01/12 15:33:20;;;;;;;;;;;;;;;;;;5057555;28;20514;-64
2021/01/12 15:35:46;;;;;;;;;;;;;;;;;;5045100;28;20007;-65
2021/01/12 15:38:13;;;;;;;;;;;;;;;;;;5050346;28;19920;-64
2021/01/12 15:40:39;;;;;;;;;;;;;;;;;;5040586;28;19921;-66
2021/01/12 15:43:06;;;;;;;;;;;;;;;;;;5042317;28;19913;-62
2021/01/12 15:45:32;;;;;;;;;;;;;;;;;;5046086;28;20399;-66
2021/01/12 15:47:58;;;;;;;;;;;;;;;;;;5036621;28;19970;-66
2021/01/12 15:50:24;;;;;;;;;;;;;;;;;;5045187;28;19940;-63
2021/01/12 15:52:51;;;;;;;;;;;;;;;;;;5034478;28;20353;-65
2021/01/12 15:55:17;;;;;;;;;;;;;;;;;;5043045;28;19913;-63
2021/01/12 15:57:42;;;;;;;;;;;;;;;;;;5039095;28;19924;-65
2021/01/12 16:00:08;;;;;;;;;;;;;;;;;;5037230;28;20395;-62
2021/01/12 16:02:34;;;;;;;;;;;;;;;;;;5046259;28;19936;-63
2021/01/12 16:05:00;;;;;;;;;;;;;;;;;;5038182;28;20043;-64
2021/01/12 16:07:26;;;;;;;;;;;;;;;;;;5041239;28;19921;-65
2021/01/12 16:09:55;;;;;;;;;;;;;;;;;;5042489;28;20379;-65
2021/01/12 16:12:30;;;;;;;;;;;;;;;;;;5036361;28;20256;-67
2021/01/12 16:14:56;;;;;;;;;;;;;;;;;;5041505;28;20008;-66
2021/01/12 16:17:22;;;;;;;;;;;;;;;;;;5053187;28;19938;-68
2021/01/12 16:19:47;;;;;;;;;;;;;;;;;;5042020;28;20674;-69
2021/01/12 16:22:13;;;;;;;;;;;;;;;;;;5075372;28;19916;-69
2021/01/12 16:24:39;;;;;;;;;;;;;;;;;;5041811;28;19917;-65
2021/01/12 16:27:05;;;;;;;;;;;;;;;;;;5045249;28;19935;-66
2021/01/12 16:29:38;;;;;;;;;;;;;;;;;;5042071;28;19974;-65
2021/01/12 16:32:12;;;;;;;;;;;;;;;;;;5046893;28;19924;-67
2021/01/12 16:34:38;;;;;;;;;;;;;;;;;;5050550;28;19925;-65
2021/01/12 16:37:04;;;;;;;;;;;;;;;;;;5038382;28;20019;-64
2021/01/12 16:39:33;;;;;;;;;;;;;;;;;;5042710;28;20032;-64